地図

経路データ

SID SEASON NUMBER BASIN SUBBASIN NAME ISO_TIME NATURE LAT LON WMO_WIND WMO_PRES WMO_AGENCY TRACK_TYPE DIST2LAND LANDFALL IFLAG USA_AGENCY USA_ATCF_ID USA_LAT USA_LON USA_RECORD USA_STATUS USA_WIND USA_PRES USA_SSHS USA_R34_NE USA_R34_SE USA_R34_SW USA_R34_NW USA_R50_NE USA_R50_SE USA_R50_SW USA_R50_NW USA_R64_NE USA_R64_SE USA_R64_SW USA_R64_NW USA_POCI USA_ROCI USA_RMW USA_EYE TOKYO_LAT TOKYO_LON TOKYO_GRADE TOKYO_WIND TOKYO_PRES TOKYO_R50_DIR TOKYO_R50_LONG TOKYO_R50_SHORT TOKYO_R30_DIR TOKYO_R30_LONG TOKYO_R30_SHORT TOKYO_LAND CMA_LAT CMA_LON CMA_CAT CMA_WIND CMA_PRES HKO_LAT HKO_LON HKO_CAT HKO_WIND HKO_PRES NEWDELHI_LAT NEWDELHI_LON NEWDELHI_GRADE NEWDELHI_WIND NEWDELHI_PRES NEWDELHI_CI NEWDELHI_DP NEWDELHI_POCI REUNION_LAT REUNION_LON REUNION_TYPE REUNION_WIND REUNION_PRES REUNION_TNUM REUNION_CI REUNION_RMW REUNION_R34_NE REUNION_R34_SE REUNION_R34_SW REUNION_R34_NW REUNION_R50_NE REUNION_R50_SE REUNION_R50_SW REUNION_R50_NW REUNION_R64_NE REUNION_R64_SE REUNION_R64_SW REUNION_R64_NW BOM_LAT BOM_LON BOM_TYPE BOM_WIND BOM_PRES BOM_TNUM BOM_CI BOM_RMW BOM_R34_NE BOM_R34_SE BOM_R34_SW BOM_R34_NW BOM_R50_NE BOM_R50_SE BOM_R50_SW BOM_R50_NW BOM_R64_NE BOM_R64_SE BOM_R64_SW BOM_R64_NW BOM_ROCI BOM_POCI BOM_EYE BOM_POS_METHOD BOM_PRES_METHOD NADI_LAT NADI_LON NADI_CAT NADI_WIND NADI_PRES WELLINGTON_LAT WELLINGTON_LON WELLINGTON_WIND WELLINGTON_PRES DS824_LAT DS824_LON DS824_STAGE DS824_WIND DS824_PRES TD9636_LAT TD9636_LON TD9636_STAGE TD9636_WIND TD9636_PRES TD9635_LAT TD9635_LON TD9635_WIND TD9635_PRES TD9635_ROCI NEUMANN_LAT NEUMANN_LON NEUMANN_CLASS NEUMANN_WIND NEUMANN_PRES MLC_LAT MLC_LON MLC_CLASS MLC_WIND MLC_PRES USA_GUST BOM_GUST BOM_GUST_PER REUNION_GUST REUNION_GUST_PER USA_SEAHGT USA_SEARAD_NE USA_SEARAD_SE USA_SEARAD_SW USA_SEARAD_NW STORM_SPEED STORM_DIR
1860061S13445 1860 12 SI MM NOT_NAMED 1860-02-29 18:00:00 NR -13.4000 84.6000 main 2048 2048 __________O___ -1 -13.4000 84.6000 7 5 255
1860061S13445 1860 12 SI MM NOT_NAMED 1860-02-29 21:00:00 NR -13.4640 84.3594 main 2072 2072 __________P___ -1 -13.4640 84.3594 7 5 255
1860061S13445 1860 12 SI MM NOT_NAMED 1860-03-01 00:00:00 NR -13.5323 84.0950 main 2098 2098 __________P___ -1 -13.5323 84.0950 7 6 255
1860061S13445 1860 12 SI MM NOT_NAMED 1860-03-01 03:00:00 NR -13.6095 83.7831 main 2130 2130 __________P___ -1 -13.6095 83.7831 7 7 256
1860061S13445 1860 12 SI MM NOT_NAMED 1860-03-01 06:00:00 NR -13.7000 83.4000 main 2172 2172 __________O___ -1 -13.7000 83.4000 7 9 257
1860061S13445 1860 12 SI MM NOT_NAMED 1860-03-01 09:00:00 NR -13.8067 82.9299 main 2221 2220 __________P___ -1 -13.8067 82.9299 7 10 257
1860061S13445 1860 12 SI MM NOT_NAMED 1860-03-01 12:00:00 NR -13.9276 82.3898 main 2227 2226 __________P___ -1 -13.9276 82.3898 7 11 257
1860061S13445 1860 12 SI MM NOT_NAMED 1860-03-01 15:00:00 NR -14.0597 81.8048 main 2244 2242 __________P___ -1 -14.0597 81.8048 7 12 257
1860061S13445 1860 12 SI MM NOT_NAMED 1860-03-01 18:00:00 NR -14.2000 81.2000 main 2252 2252 __________O___ -1 -14.2000 81.2000 7 12 256
1860061S13445 1860 12 SI MM NOT_NAMED 1860-03-01 21:00:00 NR -14.3382 80.6303 main 2263 2263 __________P___ -1 -14.3382 80.6303 7 12 256
1860061S13445 1860 12 SI MM NOT_NAMED 1860-03-02 00:00:00 NR -14.4841 80.0445 main 2286 2286 __________P___ -1 -14.4841 80.0445 7 12 255
1860061S13445 1860 12 SI MM NOT_NAMED 1860-03-02 03:00:00 NR -14.6380 79.4364 main 2300 2300 __________P___ -1 -14.6380 79.4364 7 12 255
1860061S13445 1860 12 SI MM NOT_NAMED 1860-03-02 06:00:00 NR -14.8000 78.8000 main 2308 2243 __________O___ -1 -14.8000 78.8000 7 13 256
1860061S13445 1860 12 SI MM NOT_NAMED 1860-03-02 09:00:00 NR -14.9388 78.1439 main 2233 2164 __________P___ -1 -14.9388 78.1439 7 13 257
1860061S13445 1860 12 SI MM NOT_NAMED 1860-03-02 12:00:00 NR -15.0891 77.4582 main 2164 2086 __________P___ -1 -15.0891 77.4582 7 14 256
1860061S13445 1860 12 SI MM NOT_NAMED 1860-03-02 15:00:00 NR -15.2699 76.7435 main 2076 1998 __________P___ -1 -15.2699 76.7435 7 15 254
1860061S13445 1860 12 SI MM NOT_NAMED 1860-03-02 18:00:00 NR -15.5000 76.0000 main 1998 1906 __________O___ -1 -15.5000 76.0000 7 16 250
1860061S13445 1860 12 SI MM NOT_NAMED 1860-03-02 21:00:00 NR -15.8125 75.1853 main 1906 1811 __________P___ -1 -15.8125 75.1853 7 17 247
1860061S13445 1860 12 SI MM NOT_NAMED 1860-03-03 00:00:00 NR -16.1711 74.3492 main 1800 1719 __________P___ -1 -16.1711 74.3492 7 17 245
1860061S13445 1860 12 SI MM NOT_NAMED 1860-03-03 03:00:00 NR -16.5439 73.5383 main 1709 1625 __________P___ -1 -16.5439 73.5383 7 17 244
1860061S13445 1860 12 SI MM NOT_NAMED 1860-03-03 06:00:00 NR -16.9000 72.8000 main 1625 1554 __________O___ -1 -16.9000 72.8000 7 14 244
1860061S13445 1860 12 SI MM NOT_NAMED 1860-03-03 09:00:00 NR -17.1828 72.1904 main 1554 1497 __________P___ -1 -17.1828 72.1904 7 12 243
1860061S13445 1860 12 SI MM NOT_NAMED 1860-03-03 12:00:00 NR -17.4480 71.6581 main 1497 1438 __________P___ -1 -17.4480 71.6581 7 11 241
1860061S13445 1860 12 SI MM NOT_NAMED 1860-03-03 15:00:00 NR -17.7143 71.1718 main 1438 1378 __________P___ -1 -17.7143 71.1718 7 11 239
1860061S13445 1860 12 SI MM NOT_NAMED 1860-03-03 18:00:00 NR -18.0000 70.7000 main 1378 1332 __________O___ -1 -18.0000 70.7000 7 10 239
1860061S13445 1860 12 SI MM NOT_NAMED 1860-03-03 21:00:00 NR -18.2375 70.2492 main 1322 1274 __________P___ -1 -18.2375 70.2492 7 10 239
1860061S13445 1860 12 SI MM NOT_NAMED 1860-03-04 00:00:00 NR -18.5100 69.7976 main 1274 1214 __________P___ -1 -18.5100 69.7976 7 11 235
1860061S13445 1860 12 SI MM NOT_NAMED 1860-03-04 03:00:00 NR -18.8776 69.2975 main 1214 1144 __________P___ -1 -18.8776 69.2975 7 14 229
1860061S13445 1860 12 SI MM NOT_NAMED 1860-03-04 06:00:00 NR -19.4000 68.7000 main 1144 1064 __________O___ -1 -19.4000 68.7000 7 18 226
1860061S13445 1860 12 SI MM NOT_NAMED 1860-03-04 09:00:00 NR -20.1107 67.9370 main 1053 970 __________P___ -1 -20.1107 67.9370 7 22 224
1860061S13445 1860 12 SI MM NOT_NAMED 1860-03-04 12:00:00 NR -20.9769 67.0692 main 970 887 __________P___ -1 -20.9769 67.0692 7 25 222
1860061S13445 1860 12 SI MM NOT_NAMED 1860-03-04 15:00:00 NR -21.9543 66.1414 main 881 827 __________P___ -1 -21.9543 66.1414 7 27 221
1860061S13445 1860 12 SI MM NOT_NAMED 1860-03-04 18:00:00 NR -23.0000 65.2000 main 821 783 __________O___ -1 -23.0000 65.2000 7 27 219
1860061S13445 1860 12 SI MM NOT_NAMED 1860-03-04 21:00:00 NR -24.0783 64.2821 main 788 774 __________P___ -1 -24.0783 64.2821 7 27 217
1860061S13445 1860 12 SI MM NOT_NAMED 1860-03-05 00:00:00 NR -25.1765 63.3847 main 785 777 __________P___ -1 -25.1765 63.3847 7 27 216
1860061S13445 1860 12 SI MM NOT_NAMED 1860-03-05 03:00:00 NR -26.2868 62.4948 main 812 806 __________P___ -1 -26.2868 62.4948 7 27 216
1860061S13445 1860 12 SI MM NOT_NAMED 1860-03-05 06:00:00 NR -27.4000 61.6000 main 866 __________O___ -1 -27.4000 61.6000 7 27 216

IBTrACS Databaseについて

本データベースは、米国NOAAが公開する1842年以降の世界の熱帯低気圧のベストトラックデータアーカイブInternational Best Track Archive for Climate Stewardship (IBTrACS)を、ウェブで閲覧しやすい形式に変換したものです。

最終更新日:2021-11-26